createdAt,value
2019-05-22T00:01:41.942Z,95.50
2019-05-22T00:04:23.525Z,95.70
2019-05-22T00:06:56.044Z,95.40
2019-05-22T00:09:36.210Z,95.50
2019-05-22T00:12:09.343Z,95.40
2019-05-22T00:14:40.430Z,95.40
2019-05-22T00:17:11.481Z,96.10
2019-05-22T00:19:44.166Z,95.80
2019-05-22T00:22:19.276Z,95.80
2019-05-22T00:24:50.254Z,96.00
2019-05-22T00:27:22.806Z,95.70
2019-05-22T00:29:55.870Z,95.60
2019-05-22T00:32:29.007Z,95.70
2019-05-22T00:35:01.591Z,95.90
2019-05-22T00:37:32.999Z,95.80
2019-05-22T00:40:05.581Z,95.80
2019-05-22T00:42:38.714Z,95.80
2019-05-22T00:45:14.983Z,95.70
2019-05-22T00:47:48.254Z,95.80
2019-05-22T00:50:25.132Z,95.70
2019-05-22T00:53:14.267Z,95.80
2019-05-22T00:55:48.163Z,95.70
2019-05-22T00:58:22.708Z,95.80
2019-05-22T01:01:19.610Z,95.80
2019-05-22T01:03:50.598Z,95.80
2019-05-22T01:06:23.068Z,95.80
2019-05-22T01:08:54.192Z,95.80
2019-05-22T01:11:25.132Z,95.80
2019-05-22T01:13:56.434Z,95.70
2019-05-22T01:16:27.336Z,96.10
2019-05-22T01:18:59.940Z,95.80
2019-05-22T01:21:30.786Z,95.90
2019-05-22T01:24:00.157Z,95.70
2019-05-22T01:26:32.810Z,95.70
2019-05-22T01:29:05.975Z,95.80
2019-05-22T01:31:44.247Z,95.80
2019-05-22T01:34:22.827Z,95.80
2019-05-22T01:36:56.308Z,95.80
2019-05-22T01:39:33.184Z,95.70
2019-05-22T01:42:04.995Z,96.00
2019-05-22T01:44:36.071Z,96.00
2019-05-22T01:47:10.203Z,95.90
2019-05-22T01:49:44.288Z,95.90
2019-05-22T01:52:15.385Z,95.80
2019-05-22T01:54:46.364Z,95.80
2019-05-22T01:57:18.736Z,95.80
2019-05-22T01:59:50.398Z,95.70
2019-05-22T02:02:23.863Z,95.70
2019-05-22T02:04:56.222Z,95.70
2019-05-22T02:07:28.783Z,95.70
2019-05-22T02:10:02.049Z,95.70
2019-05-22T02:12:41.259Z,95.70
2019-05-22T02:15:12.757Z,95.60
2019-05-22T02:17:44.815Z,96.00
2019-05-22T02:20:16.605Z,95.60
2019-05-22T02:22:49.950Z,95.60
2019-05-22T02:25:22.596Z,95.60
2019-05-22T02:27:53.528Z,95.60
2019-05-22T02:30:26.025Z,95.60
2019-05-22T02:33:00.954Z,95.60
2019-05-22T02:35:31.979Z,95.60
2019-05-22T02:38:04.300Z,95.50
2019-05-22T02:40:37.488Z,95.50
2019-05-22T02:43:10.077Z,95.60
2019-05-22T02:45:43.775Z,95.60
2019-05-22T02:48:16.265Z,95.60
2019-05-22T02:50:48.442Z,95.60
2019-05-22T02:53:19.504Z,95.70
2019-05-22T02:55:49.234Z,95.50
2019-05-22T02:58:21.790Z,95.50
2019-05-22T03:01:01.672Z,95.50
2019-05-22T03:03:35.122Z,95.50
2019-05-22T03:06:09.459Z,95.60
2019-05-22T03:09:04.543Z,95.60
2019-05-22T03:11:40.118Z,95.50
2019-05-22T03:14:12.734Z,95.50
2019-05-22T03:16:54.311Z,95.50
2019-05-22T03:19:42.676Z,95.50
2019-05-22T03:22:25.528Z,95.50
2019-05-22T03:25:01.261Z,95.50
2019-05-22T03:27:36.832Z,95.50
2019-05-22T03:30:09.398Z,95.60
2019-05-22T03:32:44.628Z,95.70
2019-05-22T03:35:17.782Z,95.60
2019-05-22T03:37:50.715Z,95.50
2019-05-22T03:40:21.835Z,95.50
2019-05-22T03:42:53.804Z,95.60
2019-05-22T03:45:24.787Z,95.60
2019-05-22T03:47:58.855Z,95.60
2019-05-22T03:50:31.100Z,96.00
2019-05-22T03:53:11.142Z,95.70
2019-05-22T03:55:42.158Z,95.60
2019-05-22T03:58:14.741Z,95.80
2019-05-22T04:00:47.501Z,95.70
2019-05-22T04:03:19.770Z,95.70
2019-05-22T04:05:52.603Z,95.70
2019-05-22T04:08:25.184Z,96.00
2019-05-22T04:11:01.982Z,95.70
2019-05-22T04:13:33.361Z,95.70
2019-05-22T04:16:06.590Z,95.80
2019-05-22T04:18:39.530Z,95.80
2019-05-22T04:21:12.104Z,95.80
2019-05-22T04:23:41.543Z,95.80
2019-05-22T04:26:15.632Z,95.90
2019-05-22T04:28:49.968Z,95.90
2019-05-22T04:31:22.538Z,95.90
2019-05-22T04:33:53.639Z,95.90
2019-05-22T04:36:25.400Z,95.90
2019-05-22T04:38:56.344Z,95.90
2019-05-22T04:41:26.116Z,96.00
2019-05-22T04:43:55.476Z,96.00
2019-05-22T04:46:29.924Z,95.90
2019-05-22T04:48:59.213Z,95.90
2019-05-22T04:51:31.980Z,96.00
2019-05-22T04:54:01.279Z,96.00
2019-05-22T04:56:30.664Z,96.00
2019-05-22T04:59:03.135Z,96.00
2019-05-22T05:01:34.134Z,96.00
2019-05-22T05:04:06.840Z,96.20
2019-05-22T05:06:38.624Z,96.20
2019-05-22T05:09:11.466Z,96.20
2019-05-22T05:11:40.881Z,96.30
2019-05-22T05:14:11.730Z,96.30
2019-05-22T05:16:43.573Z,96.40
2019-05-22T05:19:13.045Z,96.50
2019-05-22T05:21:43.889Z,96.50
2019-05-22T05:24:13.343Z,96.40
2019-05-22T05:26:45.969Z,96.40
2019-05-22T05:29:26.993Z,96.40
2019-05-22T05:31:56.872Z,96.40
2019-05-22T05:34:45.360Z,96.30
2019-05-22T05:37:17.093Z,96.30
2019-05-22T05:39:55.983Z,96.20
2019-05-22T05:42:27.548Z,96.20
2019-05-22T05:44:58.471Z,96.20
2019-05-22T05:47:27.913Z,96.10
2019-05-22T05:50:01.265Z,96.10
2019-05-22T05:52:31.091Z,96.00
2019-05-22T05:55:06.514Z,96.20
2019-05-22T05:57:39.063Z,96.30
2019-05-22T06:00:28.074Z,96.40
2019-05-22T06:03:04.603Z,96.40
2019-05-22T06:05:35.597Z,96.40
2019-05-22T06:08:04.898Z,96.30
2019-05-22T06:10:40.519Z,96.50
2019-05-22T06:13:14.603Z,96.20
2019-05-22T06:15:48.651Z,95.90
2019-05-22T06:18:34.918Z,95.80
2019-05-22T06:21:09.197Z,95.70
2019-05-22T06:23:43.315Z,96.00
2019-05-22T06:26:17.359Z,96.10
2019-05-22T06:28:48.397Z,96.20
2019-05-22T06:31:37.713Z,96.20
2019-05-22T06:34:09.294Z,96.10
2019-05-22T06:36:40.311Z,96.10
2019-05-22T06:39:12.785Z,95.70
2019-05-22T06:41:43.959Z,95.90
2019-05-22T06:44:33.359Z,96.00
2019-05-22T06:47:06.849Z,95.90
2019-05-22T06:49:39.023Z,95.80
2019-05-22T06:52:11.784Z,95.90
2019-05-22T06:54:41.223Z,95.80
2019-05-22T06:57:13.886Z,95.60
2019-05-22T06:59:45.015Z,95.80
2019-05-22T07:02:17.732Z,95.70
2019-05-22T07:04:48.651Z,95.80
2019-05-22T07:07:21.746Z,95.60
2019-05-22T07:09:55.847Z,95.90
2019-05-22T07:12:28.844Z,95.80
2019-05-22T07:15:09.007Z,95.90
2019-05-22T07:17:43.469Z,95.40
2019-05-22T07:20:15.497Z,95.50
2019-05-22T07:22:44.834Z,95.60
2019-05-22T07:25:16.312Z,95.20
2019-05-22T07:27:49.060Z,95.40
2019-05-22T07:30:19.966Z,95.40
2019-05-22T07:32:52.629Z,95.40
2019-05-22T07:35:45.700Z,95.30
2019-05-22T07:38:01.427Z,95.30
2019-05-22T07:40:35.102Z,94.70
2019-05-22T07:43:06.898Z,95.20
2019-05-22T07:45:38.594Z,95.20
2019-05-22T07:48:12.963Z,95.30
2019-05-22T07:50:48.735Z,94.90
2019-05-22T07:53:19.426Z,95.00
2019-05-22T07:55:52.409Z,95.00
2019-05-22T07:58:24.765Z,95.10
2019-05-22T08:00:57.320Z,95.20
2019-05-22T08:03:28.979Z,95.30
2019-05-22T08:06:00.373Z,95.50
2019-05-22T08:08:33.139Z,95.60
2019-05-22T08:11:05.500Z,95.50
2019-05-22T08:13:39.592Z,95.30
2019-05-22T08:16:11.884Z,94.90
2019-05-22T08:18:43.359Z,95.10
2019-05-22T08:21:14.534Z,94.90
2019-05-22T08:23:45.390Z,95.10
2019-05-22T08:26:16.662Z,95.10
2019-05-22T08:28:49.769Z,95.00
2019-05-22T08:31:22.960Z,95.30
2019-05-22T08:33:53.892Z,95.00
2019-05-22T08:36:23.258Z,95.00
2019-05-22T08:38:55.747Z,95.00
2019-05-22T08:41:29.831Z,94.90
2019-05-22T08:44:15.374Z,95.20
2019-05-22T08:46:33.906Z,95.20
2019-05-22T08:49:04.958Z,95.00
2019-05-22T08:51:36.911Z,95.20
2019-05-22T08:54:08.067Z,95.00
2019-05-22T08:56:42.265Z,95.00
2019-05-22T08:59:19.612Z,94.60
2019-05-22T09:01:47.734Z,94.60
2019-05-22T09:04:20.748Z,94.80
2019-05-22T09:06:52.993Z,94.80
2019-05-22T09:09:27.277Z,95.00
2019-05-22T09:11:58.307Z,94.90
2019-05-22T09:14:27.763Z,94.50
2019-05-22T09:16:57.127Z,94.60
2019-05-22T09:19:29.238Z,94.20
2019-05-22T09:22:00.816Z,94.40
2019-05-22T09:24:30.520Z,94.20
2019-05-22T09:27:03.328Z,94.00
2019-05-22T09:29:37.164Z,94.60
2019-05-22T09:32:08.316Z,94.50
2019-05-22T09:34:38.238Z,94.40
2019-05-22T09:37:10.813Z,94.50
2019-05-22T09:39:41.966Z,94.30
2019-05-22T09:42:11.384Z,94.20
2019-05-22T09:44:43.918Z,94.30
2019-05-22T09:47:14.958Z,94.40
2019-05-22T09:49:47.755Z,94.50
2019-05-22T09:52:20.299Z,94.50
2019-05-22T09:54:52.938Z,94.30
2019-05-22T09:57:23.907Z,94.30
2019-05-22T09:59:53.280Z,93.50
2019-05-22T10:02:22.656Z,92.90
2019-05-22T10:04:55.388Z,93.70
2019-05-22T10:07:27.614Z,93.50
2019-05-22T10:09:59.754Z,93.80
2019-05-22T10:12:32.452Z,93.50
2019-05-22T10:15:05.903Z,93.20
2019-05-22T10:17:39.579Z,93.30
2019-05-22T10:20:12.460Z,93.40
2019-05-22T10:22:43.461Z,93.50
2019-05-22T10:25:17.176Z,93.70
2019-05-22T10:27:50.280Z,93.30
2019-05-22T10:30:24.279Z,93.10
2019-05-22T10:32:55.394Z,92.70
2019-05-22T10:35:28.914Z,93.00
2019-05-22T10:37:59.984Z,92.90
2019-05-22T10:40:29.810Z,93.20
2019-05-22T10:42:59.262Z,93.00
2019-05-22T10:45:31.922Z,93.10
2019-05-22T10:48:05.075Z,92.00
2019-05-22T10:50:37.023Z,91.90
2019-05-22T10:53:09.324Z,92.80
2019-05-22T10:55:40.342Z,92.60
2019-05-22T10:58:11.204Z,92.30
2019-05-22T11:00:42.268Z,92.80
2019-05-22T11:03:14.530Z,92.30
2019-05-22T11:06:05.304Z,91.30
2019-05-22T11:08:18.354Z,91.70
2019-05-22T11:10:49.208Z,92.40
2019-05-22T11:13:21.849Z,92.50
2019-05-22T11:15:53.351Z,92.40
2019-05-22T11:18:22.956Z,92.70
2019-05-22T11:20:53.872Z,93.00
2019-05-22T11:23:24.910Z,93.00
2019-05-22T11:25:54.944Z,93.00
2019-05-22T11:28:27.632Z,92.90
2019-05-22T11:30:58.700Z,92.10
2019-05-22T11:33:34.199Z,92.30
2019-05-22T11:36:06.529Z,92.20
2019-05-22T11:38:36.686Z,92.00
2019-05-22T11:41:08.239Z,91.00
2019-05-22T11:43:40.075Z,91.50
2019-05-22T11:46:12.701Z,92.20
2019-05-22T11:48:43.853Z,90.30
2019-05-22T11:51:14.980Z,89.20
2019-05-22T11:53:44.514Z,85.20
2019-05-22T11:56:13.890Z,90.40
2019-05-22T11:58:44.742Z,90.70
2019-05-22T12:01:17.438Z,90.90
2019-05-22T12:03:49.582Z,90.30
2019-05-22T12:06:21.548Z,88.20
2019-05-22T12:08:50.919Z,89.60
2019-05-22T12:11:22.437Z,90.30
2019-05-22T12:13:54.996Z,87.00
2019-05-22T12:16:25.966Z,87.10
2019-05-22T12:18:58.907Z,87.10
2019-05-22T12:21:28.700Z,88.50
2019-05-22T12:23:58.088Z,86.20
2019-05-22T12:26:29.292Z,84.90
2019-05-22T12:29:00.174Z,83.70
2019-05-22T12:31:29.714Z,84.40
2019-05-22T12:34:03.779Z,79.20
2019-05-22T12:36:35.056Z,80.30
2019-05-22T12:39:09.186Z,82.40
2019-05-22T12:41:41.768Z,82.10
2019-05-22T12:44:11.979Z,84.90
2019-05-22T12:46:44.596Z,84.50
2019-05-22T12:49:17.447Z,82.90
2019-05-22T12:51:49.032Z,81.20
2019-05-22T12:54:18.844Z,82.70
2019-05-22T12:56:51.394Z,81.30
2019-05-22T12:59:22.434Z,80.90
2019-05-22T13:01:52.915Z,80.70
2019-05-22T13:04:24.440Z,79.90
2019-05-22T13:06:56.650Z,81.70
2019-05-22T13:09:30.204Z,77.30
2019-05-22T13:12:01.236Z,79.30
2019-05-22T13:14:30.704Z,82.50
2019-05-22T13:17:05.294Z,80.10
2019-05-22T13:19:39.595Z,77.20
2019-05-22T13:22:13.701Z,75.70
2019-05-22T13:24:46.502Z,78.70
2019-05-22T13:27:19.879Z,75.50
2019-05-22T13:29:51.730Z,75.10
2019-05-22T13:32:23.962Z,74.60
2019-05-22T13:34:56.968Z,74.50
2019-05-22T13:37:26.572Z,72.70
2019-05-22T13:39:57.539Z,72.30
2019-05-22T13:42:28.457Z,71.00
2019-05-22T13:44:59.352Z,73.60
2019-05-22T13:47:31.396Z,75.30
2019-05-22T13:50:03.257Z,72.50
2019-05-22T13:52:37.981Z,72.90
2019-05-22T13:55:10.586Z,75.60
2019-05-22T13:57:43.048Z,77.10
2019-05-22T14:00:16.848Z,75.60
2019-05-22T14:02:49.522Z,75.00
2019-05-22T14:05:20.483Z,75.70
2019-05-22T14:07:51.491Z,76.20
2019-05-22T14:10:24.787Z,73.80
2019-05-22T14:12:55.741Z,75.00
2019-05-22T14:15:47.453Z,76.40
2019-05-22T14:18:02.329Z,75.40
2019-05-22T14:20:34.167Z,76.30
2019-05-22T14:23:03.644Z,76.90
2019-05-22T14:25:34.860Z,78.60
2019-05-22T14:28:07.427Z,75.40
2019-05-22T14:30:40.312Z,76.50
2019-05-22T14:33:11.562Z,71.80
2019-05-22T14:35:48.902Z,74.70
2019-05-22T14:38:17.069Z,75.40
2019-05-22T14:40:46.509Z,70.80
2019-05-22T14:43:17.614Z,75.60
2019-05-22T14:45:50.189Z,73.60
2019-05-22T14:48:22.909Z,74.40
2019-05-22T14:50:53.884Z,73.40
2019-05-22T14:53:26.315Z,73.50
2019-05-22T14:55:57.301Z,74.40
2019-05-22T14:58:28.465Z,73.50
2019-05-22T15:00:59.411Z,72.70
2019-05-22T15:03:33.475Z,70.50
2019-05-22T15:06:03.089Z,71.30
2019-05-22T15:08:35.707Z,70.90
2019-05-22T15:11:06.888Z,72.20
2019-05-22T15:13:39.235Z,69.20
2019-05-22T15:16:08.742Z,68.30
2019-05-22T15:18:41.381Z,67.00
2019-05-22T15:21:15.502Z,65.90
2019-05-22T15:23:48.435Z,65.00
2019-05-22T15:26:19.471Z,63.40
2019-05-22T15:28:50.433Z,63.30
2019-05-22T15:31:21.325Z,64.00
2019-05-22T15:33:53.907Z,62.10
2019-05-22T15:36:24.999Z,62.20
2019-05-22T15:38:56.207Z,61.00
2019-05-22T15:41:29.378Z,60.30
2019-05-22T15:44:01.913Z,60.00
2019-05-22T15:46:32.851Z,59.90
2019-05-22T15:49:07.395Z,56.90
2019-05-22T15:51:37.675Z,58.90
2019-05-22T15:54:10.109Z,62.10
2019-05-22T15:56:43.028Z,61.90
2019-05-22T15:59:15.131Z,57.70
2019-05-22T16:01:47.725Z,59.20
2019-05-22T16:04:20.181Z,60.50
2019-05-22T16:06:51.139Z,62.60
2019-05-22T16:09:23.681Z,61.80
2019-05-22T16:11:55.347Z,63.30
2019-05-22T16:14:28.331Z,58.40
2019-05-22T16:17:01.452Z,58.70
2019-05-22T16:19:32.648Z,59.20
2019-05-22T16:22:06.609Z,59.90
2019-05-22T16:24:39.021Z,58.10
2019-05-22T16:27:12.623Z,58.60
2019-05-22T16:29:45.168Z,57.60
2019-05-22T16:32:19.224Z,58.90
2019-05-22T16:34:51.731Z,60.00
2019-05-22T16:37:22.769Z,61.70
2019-05-22T16:39:54.367Z,61.60
2019-05-22T16:42:23.669Z,62.50
2019-05-22T16:44:53.082Z,62.10
2019-05-22T16:47:25.744Z,64.90
2019-05-22T16:49:56.809Z,60.30
2019-05-22T16:52:29.305Z,57.60
2019-05-22T16:55:03.740Z,59.90
2019-05-22T16:57:40.184Z,62.30
2019-05-22T17:00:14.276Z,61.90
2019-05-22T17:02:45.815Z,62.10
2019-05-22T17:05:18.431Z,62.60
2019-05-22T17:07:52.521Z,61.80
2019-05-22T17:10:25.750Z,58.90
2019-05-22T17:13:00.159Z,60.70
2019-05-22T17:15:32.611Z,57.90
2019-05-22T17:18:02.139Z,59.50
2019-05-22T17:20:34.804Z,59.40
2019-05-22T17:23:05.977Z,58.40
2019-05-22T17:25:38.981Z,57.60
2019-05-22T17:28:10.498Z,59.10
2019-05-22T17:30:42.270Z,58.20
2019-05-22T17:33:13.579Z,59.10
2019-05-22T17:35:44.531Z,59.20
2019-05-22T17:38:17.111Z,61.10
2019-05-22T17:40:48.843Z,60.00
2019-05-22T17:43:20.843Z,60.20
2019-05-22T17:45:51.759Z,59.10
2019-05-22T17:48:22.728Z,60.60
2019-05-22T17:50:55.259Z,60.00
2019-05-22T17:53:27.724Z,59.10
2019-05-22T17:55:57.012Z,59.90
2019-05-22T17:58:30.003Z,59.50
2019-05-22T18:01:01.658Z,59.10
2019-05-22T18:03:33.632Z,59.50
2019-05-22T18:06:05.397Z,60.00
2019-05-22T18:08:36.876Z,59.60
2019-05-22T18:11:09.355Z,60.10
2019-05-22T18:13:44.497Z,59.70
2019-05-22T18:16:13.854Z,61.30
2019-05-22T18:18:43.244Z,61.00
2019-05-22T18:21:14.195Z,61.20
2019-05-22T18:23:45.078Z,61.10
2019-05-22T18:26:16.143Z,60.00
2019-05-22T18:28:47.096Z,59.70
2019-05-22T18:31:16.660Z,59.50
2019-05-22T18:33:46.048Z,60.30
2019-05-22T18:36:15.586Z,60.70
2019-05-22T18:38:45.176Z,60.90
2019-05-22T18:41:16.174Z,60.60
2019-05-22T18:43:47.906Z,61.60
2019-05-22T18:46:18.872Z,61.80
2019-05-22T18:48:48.471Z,61.60
2019-05-22T18:51:19.388Z,61.60
2019-05-22T18:53:50.294Z,62.10
2019-05-22T18:56:21.300Z,61.80
2019-05-22T18:58:52.511Z,62.30
2019-05-22T19:01:26.981Z,62.40
2019-05-22T19:03:59.850Z,61.80
2019-05-22T19:06:31.162Z,62.80
2019-05-22T19:09:00.627Z,63.40
2019-05-22T19:11:33.060Z,63.40
2019-05-22T19:14:02.388Z,63.70
2019-05-22T19:16:35.018Z,62.70
2019-05-22T19:19:04.366Z,62.30
2019-05-22T19:21:36.412Z,62.80
2019-05-22T19:24:09.184Z,62.70
2019-05-22T19:26:41.489Z,63.20
2019-05-22T19:29:10.920Z,62.90
2019-05-22T19:31:41.854Z,63.40
2019-05-22T19:34:12.168Z,62.90
2019-05-22T19:36:44.462Z,63.00
2019-05-22T19:39:16.836Z,63.30
2019-05-22T19:42:01.412Z,63.40
2019-05-22T19:44:21.832Z,63.20
2019-05-22T19:46:51.282Z,63.50
2019-05-22T19:49:22.274Z,63.80
2019-05-22T19:51:56.551Z,64.00
2019-05-22T19:54:27.941Z,64.20
2019-05-22T19:57:00.718Z,64.30
2019-05-22T19:59:31.813Z,64.40
2019-05-22T20:02:02.937Z,64.40
2019-05-22T20:04:33.711Z,64.40
2019-05-22T20:07:04.659Z,64.50
2019-05-22T20:09:38.894Z,64.70
2019-05-22T20:12:10.007Z,64.60
2019-05-22T20:14:42.739Z,64.50
2019-05-22T20:17:13.710Z,64.70
2019-05-22T20:19:44.624Z,64.60
2019-05-22T20:22:14.858Z,64.60
2019-05-22T20:24:44.216Z,64.60
2019-05-22T20:27:15.523Z,64.80
2019-05-22T20:29:46.432Z,64.70
2019-05-22T20:32:17.934Z,64.50
2019-05-22T20:34:50.430Z,64.70
2019-05-22T20:37:23.156Z,64.50
2019-05-22T20:39:55.770Z,64.60
2019-05-22T20:42:29.776Z,64.80
2019-05-22T20:45:05.319Z,64.60
2019-05-22T20:47:43.934Z,64.70
2019-05-22T20:50:16.908Z,65.00
2019-05-22T20:52:47.394Z,65.30
2019-05-22T20:55:20.141Z,65.40
2019-05-22T20:57:51.078Z,65.20
2019-05-22T21:00:22.146Z,65.40
2019-05-22T21:02:54.529Z,65.50
2019-05-22T21:05:27.003Z,65.60
2019-05-22T21:08:02.980Z,65.80
2019-05-22T21:10:34.587Z,66.00
2019-05-22T21:13:05.639Z,65.60
2019-05-22T21:15:38.261Z,65.80
2019-05-22T21:18:09.634Z,65.70
2019-05-22T21:20:53.591Z,65.80
2019-05-22T21:23:13.531Z,65.80
2019-05-22T21:25:44.356Z,65.80
2019-05-22T21:28:17.698Z,65.90
2019-05-22T21:30:50.320Z,66.30
2019-05-22T21:33:22.648Z,66.40
2019-05-22T21:35:54.901Z,66.50
2019-05-22T21:38:26.666Z,66.60
2019-05-22T21:40:59.284Z,66.80
2019-05-22T21:43:31.382Z,67.00
2019-05-22T21:46:02.298Z,67.30
2019-05-22T21:48:33.204Z,67.50
2019-05-22T21:51:04.228Z,67.60
2019-05-22T21:53:39.410Z,67.70
2019-05-22T21:56:11.884Z,68.00
2019-05-22T21:58:43.508Z,68.10
2019-05-22T22:01:14.594Z,68.10
2019-05-22T22:03:47.562Z,68.30
2019-05-22T22:06:20.579Z,68.50
2019-05-22T22:08:53.136Z,68.80
2019-05-22T22:11:25.844Z,68.80
2019-05-22T22:13:57.009Z,69.10
2019-05-22T22:16:28.052Z,69.60
2019-05-22T22:18:59.753Z,69.70
2019-05-22T22:21:30.693Z,69.90
2019-05-22T22:24:01.594Z,69.60
2019-05-22T22:26:34.156Z,70.00
2019-05-22T22:29:05.083Z,70.20
2019-05-22T22:31:37.821Z,70.20
2019-05-22T22:34:19.112Z,70.20
2019-05-22T22:36:50.311Z,70.30
2019-05-22T22:39:21.620Z,70.30
2019-05-22T22:41:54.649Z,70.40
2019-05-22T22:44:25.843Z,70.40
2019-05-22T22:47:02.610Z,70.80
2019-05-22T22:49:32.699Z,71.00
2019-05-22T22:52:03.702Z,71.10
2019-05-22T22:54:35.844Z,71.30
2019-05-22T22:57:09.143Z,71.20
2019-05-22T22:59:40.169Z,71.30
2019-05-22T23:02:12.743Z,71.20
2019-05-22T23:04:45.203Z,71.40
2019-05-22T23:07:17.234Z,71.40
2019-05-22T23:09:49.128Z,71.50
2019-05-22T23:12:21.669Z,71.60
2019-05-22T23:14:56.894Z,71.60
2019-05-22T23:17:27.986Z,71.60
2019-05-22T23:20:00.596Z,71.90
2019-05-22T23:22:30.515Z,71.90
2019-05-22T23:25:02.674Z,72.00
2019-05-22T23:27:36.988Z,72.20
2019-05-22T23:30:10.819Z,72.20
2019-05-22T23:32:44.414Z,73.00
2019-05-22T23:35:17.736Z,72.30
2019-05-22T23:37:47.148Z,72.40
2019-05-22T23:40:23.801Z,72.60
2019-05-22T23:42:54.728Z,72.70
2019-05-22T23:45:26.195Z,72.70
2019-05-22T23:48:12.669Z,72.80
2019-05-22T23:50:43.697Z,72.70
2019-05-22T23:53:15.359Z,72.70
2019-05-22T23:55:46.432Z,72.90
2019-05-22T23:58:20.042Z,72.80
